createdAt,value
2023-11-25T00:00:13.601Z,2.18
2023-11-25T00:02:42.026Z,2.15
2023-11-25T00:05:10.914Z,2.13
2023-11-25T00:07:40.743Z,2.09
2023-11-25T00:10:10.039Z,2.09
2023-11-25T00:12:38.777Z,2.10
2023-11-25T00:15:07.937Z,2.12
2023-11-25T00:17:36.381Z,2.05
2023-11-25T00:20:06.215Z,2.00
2023-11-25T00:22:35.695Z,2.02
2023-11-25T00:25:06.170Z,2.00
2023-11-25T00:27:34.570Z,2.03
2023-11-25T00:30:03.895Z,2.05
2023-11-25T00:32:32.350Z,2.08
2023-11-25T00:35:01.738Z,2.09
2023-11-25T00:37:30.328Z,2.11
2023-11-25T00:40:00.369Z,2.11
2023-11-25T00:42:30.429Z,2.10
2023-11-25T00:44:59.661Z,2.13
2023-11-25T00:47:28.832Z,2.14
2023-11-25T00:49:57.781Z,2.16
2023-11-25T00:52:26.226Z,2.17
2023-11-25T00:54:54.645Z,2.20
2023-11-25T00:57:23.009Z,2.21
2023-11-25T00:59:52.738Z,2.24
2023-11-25T01:02:21.244Z,2.24
2023-11-25T01:04:50.160Z,2.25
2023-11-25T01:07:20.000Z,2.24
2023-11-25T01:09:50.874Z,2.26
2023-11-25T01:12:19.205Z,2.28
2023-11-25T01:14:47.511Z,2.32
2023-11-25T01:17:17.465Z,2.35
2023-11-25T01:19:45.885Z,2.34
2023-11-25T01:22:14.306Z,2.35
2023-11-25T01:24:42.972Z,2.35
2023-11-25T01:27:11.423Z,2.34
2023-11-25T01:29:39.758Z,2.34
2023-11-25T01:32:08.460Z,2.36
2023-11-25T01:34:38.237Z,2.36
2023-11-25T01:37:08.276Z,2.39
2023-11-25T01:39:36.699Z,2.41
2023-11-25T01:42:05.661Z,2.43
2023-11-25T01:44:34.522Z,2.43
2023-11-25T01:47:03.149Z,2.25
2023-11-25T01:49:31.783Z,1.91
2023-11-25T01:52:01.929Z,1.69
2023-11-25T01:54:30.598Z,1.62
2023-11-25T01:57:02.999Z,1.60
2023-11-25T01:59:32.509Z,1.59
2023-11-25T02:02:02.685Z,1.62
2023-11-25T02:04:33.835Z,1.68
2023-11-25T02:07:04.510Z,1.75
2023-11-25T02:09:32.853Z,1.79
2023-11-25T02:12:03.051Z,1.82
2023-11-25T02:14:31.749Z,1.80
2023-11-25T02:17:01.562Z,1.57
2023-11-25T02:19:30.880Z,1.42
2023-11-25T02:21:59.703Z,1.24
2023-11-25T02:24:31.192Z,1.13
2023-11-25T02:27:01.274Z,1.00
2023-11-25T02:29:30.135Z,0.91
2023-11-25T02:31:59.774Z,0.87
2023-11-25T02:34:29.048Z,0.89
2023-11-25T02:36:58.958Z,0.91
2023-11-25T02:39:28.805Z,0.99
2023-11-25T02:41:59.487Z,1.04
2023-11-25T02:44:28.897Z,1.08
2023-11-25T02:46:57.355Z,1.10
2023-11-25T02:49:26.724Z,1.08
2023-11-25T02:51:56.510Z,1.05
2023-11-25T02:54:25.886Z,1.06
2023-11-25T02:56:54.418Z,1.09
2023-11-25T02:59:24.272Z,1.10
2023-11-25T03:01:54.082Z,1.08
2023-11-25T03:04:24.771Z,1.07
2023-11-25T03:06:53.473Z,1.07
2023-11-25T03:09:23.132Z,1.06
2023-11-25T03:11:51.514Z,1.08
2023-11-25T03:14:20.440Z,1.11
2023-11-25T03:16:50.630Z,1.13
2023-11-25T03:19:19.409Z,1.16
2023-11-25T03:21:47.904Z,1.17
2023-11-25T03:24:17.573Z,1.18
2023-11-25T03:26:46.048Z,1.17
2023-11-25T03:29:14.579Z,1.20
2023-11-25T03:31:44.060Z,1.21
2023-11-25T03:34:14.037Z,1.22
2023-11-25T03:36:42.403Z,1.24
2023-11-25T03:39:11.154Z,1.25
2023-11-25T03:41:39.673Z,1.29
2023-11-25T03:44:08.644Z,1.32
2023-11-25T03:46:37.197Z,1.28
2023-11-25T03:49:06.111Z,1.30
2023-11-25T03:51:35.940Z,1.29
2023-11-25T03:54:04.596Z,1.27
2023-11-25T03:56:33.300Z,1.25
2023-11-25T03:59:01.626Z,1.26
2023-11-25T04:01:30.224Z,1.24
2023-11-25T04:03:58.658Z,1.23
2023-11-25T04:06:27.555Z,1.23
2023-11-25T04:08:57.530Z,1.23
2023-11-25T04:11:25.874Z,1.21
2023-11-25T04:13:57.821Z,1.17
2023-11-25T04:16:26.617Z,1.16
2023-11-25T04:18:56.447Z,1.16
2023-11-25T04:21:24.805Z,1.16
2023-11-25T04:23:54.026Z,1.12
2023-11-25T04:26:25.918Z,1.10
2023-11-25T04:28:54.930Z,1.09
2023-11-25T04:31:23.410Z,1.08
2023-11-25T04:33:51.994Z,1.09
2023-11-25T04:36:20.382Z,1.12
2023-11-25T04:38:48.781Z,1.12
2023-11-25T04:41:17.255Z,1.09
2023-11-25T04:43:46.992Z,1.08
2023-11-25T04:46:15.537Z,1.08
2023-11-25T04:48:43.935Z,1.08
2023-11-25T04:51:12.336Z,1.09
2023-11-25T04:53:40.710Z,1.07
2023-11-25T04:56:09.631Z,1.06
2023-11-25T04:58:39.904Z,1.07
2023-11-25T05:01:09.743Z,1.05
2023-11-25T05:03:38.223Z,1.05
2023-11-25T05:06:10.779Z,1.07
2023-11-25T05:08:39.180Z,1.10
2023-11-25T05:11:10.361Z,1.09
2023-11-25T05:13:38.917Z,1.10
2023-11-25T05:16:09.333Z,1.11
2023-11-25T05:18:37.782Z,1.12
2023-11-25T05:21:09.135Z,1.15
2023-11-25T05:23:37.525Z,1.16
2023-11-25T05:26:06.496Z,1.13
2023-11-25T05:28:35.053Z,1.11
2023-11-25T05:31:03.493Z,1.10
2023-11-25T05:33:34.239Z,1.08
2023-11-25T05:36:03.537Z,1.06
2023-11-25T05:38:31.967Z,1.07
2023-11-25T05:41:00.604Z,1.08
2023-11-25T05:43:29.023Z,1.08
2023-11-25T05:45:59.316Z,1.12
2023-11-25T05:48:28.450Z,1.14
2023-11-25T05:50:59.106Z,1.10
2023-11-25T05:53:27.476Z,1.07
2023-11-25T05:55:57.056Z,1.08
2023-11-25T05:58:25.746Z,1.10
2023-11-25T06:00:55.490Z,1.11
2023-11-25T06:03:24.732Z,1.10
2023-11-25T06:05:53.205Z,1.08
2023-11-25T06:08:22.950Z,1.08
2023-11-25T06:10:51.393Z,1.06
2023-11-25T06:13:21.123Z,1.05
2023-11-25T06:15:49.589Z,1.00
2023-11-25T06:18:21.403Z,0.97
2023-11-25T06:20:49.998Z,0.96
2023-11-25T06:23:18.704Z,0.96
2023-11-25T06:25:48.639Z,0.94
2023-11-25T06:28:18.434Z,0.93
2023-11-25T06:30:47.479Z,0.91
2023-11-25T06:33:15.924Z,0.89
2023-11-25T06:35:44.305Z,0.87
2023-11-25T06:38:12.725Z,0.88
2023-11-25T06:40:41.525Z,0.92
2023-11-25T06:43:13.202Z,0.91
2023-11-25T06:45:44.785Z,0.88
2023-11-25T06:48:13.194Z,0.89
2023-11-25T06:50:41.605Z,0.86
2023-11-25T06:53:10.038Z,0.82
2023-11-25T06:55:42.401Z,0.81
2023-11-25T06:58:12.613Z,0.76
2023-11-25T07:00:41.876Z,0.76
2023-11-25T07:03:10.855Z,0.78
2023-11-25T07:05:39.332Z,0.81
2023-11-25T07:08:07.733Z,0.85
2023-11-25T07:10:37.327Z,0.85
2023-11-25T07:13:07.134Z,0.85
2023-11-25T07:15:36.921Z,0.89
2023-11-25T07:18:08.088Z,0.92
2023-11-25T07:20:36.845Z,0.94
2023-11-25T07:23:05.231Z,0.96
2023-11-25T07:25:33.934Z,0.95
2023-11-25T07:28:02.314Z,0.90
2023-11-25T07:30:30.874Z,0.86
2023-11-25T07:33:00.671Z,0.85
2023-11-25T07:35:29.081Z,0.88
2023-11-25T07:37:57.806Z,0.91
2023-11-25T07:40:26.250Z,0.93
2023-11-25T07:42:54.642Z,0.94
2023-11-25T07:45:22.976Z,0.94
2023-11-25T07:47:51.367Z,0.96
2023-11-25T07:50:22.941Z,0.96
2023-11-25T07:52:52.605Z,0.99
2023-11-25T07:55:21.535Z,1.04
2023-11-25T07:57:50.240Z,1.03
2023-11-25T08:00:20.868Z,1.00
2023-11-25T08:02:49.800Z,1.00
2023-11-25T08:05:24.813Z,1.00
2023-11-25T08:07:56.233Z,1.00
2023-11-25T08:10:32.385Z,0.98
2023-11-25T08:13:01.062Z,0.98
2023-11-25T08:15:30.150Z,0.97
2023-11-25T08:17:59.628Z,1.00
2023-11-25T08:20:28.403Z,0.97
2023-11-25T08:22:58.239Z,1.01
2023-11-25T08:25:26.986Z,1.05
2023-11-25T08:27:55.330Z,1.04
2023-11-25T08:30:23.723Z,1.02
2023-11-25T08:32:52.233Z,1.00
2023-11-25T08:35:21.128Z,0.95
2023-11-25T08:37:49.685Z,0.98
2023-11-25T08:40:22.903Z,0.98
2023-11-25T08:42:51.727Z,0.96
2023-11-25T08:45:20.774Z,1.00
2023-11-25T08:47:50.555Z,1.04
2023-11-25T08:50:20.079Z,1.06
2023-11-25T08:52:50.038Z,1.12
2023-11-25T08:55:21.448Z,1.15
2023-11-25T08:57:50.527Z,1.12
2023-11-25T09:00:21.674Z,1.08
2023-11-25T09:02:52.830Z,1.09
2023-11-25T09:05:24.029Z,1.14
2023-11-25T09:07:53.217Z,1.24
2023-11-25T09:10:24.283Z,1.33
2023-11-25T09:12:53.812Z,1.40
2023-11-25T09:15:23.490Z,1.52
2023-11-25T09:17:52.527Z,1.54
2023-11-25T09:20:22.213Z,1.55
2023-11-25T09:22:52.330Z,1.58
2023-11-25T09:25:21.048Z,1.61
2023-11-25T09:27:51.415Z,1.67
2023-11-25T09:30:20.126Z,1.73
2023-11-25T09:32:48.522Z,1.81
2023-11-25T09:35:17.204Z,1.80
2023-11-25T09:37:46.066Z,1.72
2023-11-25T09:40:16.861Z,1.66
2023-11-25T09:42:48.049Z,1.63
2023-11-25T09:45:18.561Z,1.64
2023-11-25T09:47:47.331Z,1.64
2023-11-25T09:50:16.216Z,1.64
2023-11-25T09:52:51.335Z,1.60
2023-11-25T09:55:21.950Z,1.60
2023-11-25T09:57:52.526Z,1.71
2023-11-25T10:00:22.822Z,1.76
2023-11-25T10:02:54.741Z,1.78
2023-11-25T10:05:23.587Z,1.80
2023-11-25T10:07:52.021Z,1.83
2023-11-25T10:10:25.393Z,1.88
2023-11-25T10:12:54.417Z,1.95
2023-11-25T10:15:24.559Z,1.97
2023-11-25T10:17:56.226Z,1.97
2023-11-25T10:20:24.903Z,1.96
2023-11-25T10:22:57.943Z,2.04
2023-11-25T10:25:28.815Z,2.11
2023-11-25T10:27:57.676Z,2.15
2023-11-25T10:30:29.687Z,2.14
2023-11-25T10:33:01.636Z,2.13
2023-11-25T10:35:30.044Z,2.14
2023-11-25T10:37:58.600Z,2.11
2023-11-25T10:40:28.663Z,2.09
2023-11-25T10:42:57.742Z,2.05
2023-11-25T10:45:29.066Z,2.04
2023-11-25T10:47:59.532Z,1.98
2023-11-25T10:50:28.411Z,1.89
2023-11-25T10:52:59.420Z,1.87
2023-11-25T10:55:30.215Z,1.86
2023-11-25T10:58:00.311Z,1.89
2023-11-25T11:00:31.918Z,1.85
2023-11-25T11:03:06.856Z,1.77
2023-11-25T11:05:43.167Z,1.78
2023-11-25T11:08:18.552Z,1.83
2023-11-25T11:10:55.359Z,1.83
2023-11-25T11:13:28.237Z,1.81
2023-11-25T11:16:01.494Z,1.83
2023-11-25T11:18:36.729Z,1.88
2023-11-25T11:21:08.269Z,1.92
2023-11-25T11:23:39.054Z,1.96
2023-11-25T11:26:24.725Z,1.96
2023-11-25T11:29:05.482Z,1.97
2023-11-25T11:32:00.186Z,1.99
2023-11-25T11:34:30.630Z,1.97
2023-11-25T11:36:59.625Z,1.96
2023-11-25T11:39:34.871Z,1.97
2023-11-25T11:42:29.036Z,2.03
2023-11-25T11:45:00.543Z,2.05
2023-11-25T11:47:30.531Z,2.12
2023-11-25T11:49:59.112Z,2.17
2023-11-25T11:52:27.563Z,2.19
2023-11-25T11:54:55.939Z,2.21
2023-11-25T11:57:24.341Z,2.26
2023-11-25T12:00:00.978Z,2.39
2023-11-25T12:02:32.014Z,2.51
2023-11-25T12:05:02.290Z,2.54
2023-11-25T12:07:31.236Z,2.46
2023-11-25T12:09:59.728Z,2.35
2023-11-25T12:12:28.312Z,2.25
2023-11-25T12:14:56.658Z,2.21
2023-11-25T12:17:25.381Z,2.20
2023-11-25T12:19:55.976Z,2.25
2023-11-25T12:22:24.590Z,2.31
2023-11-25T12:24:53.501Z,2.29
2023-11-25T12:27:24.691Z,2.28
2023-11-25T12:29:53.178Z,2.23
2023-11-25T12:32:21.683Z,2.16
2023-11-25T12:34:50.220Z,2.03
2023-11-25T12:37:20.315Z,1.95
2023-11-25T12:39:50.136Z,1.96
2023-11-25T12:42:24.674Z,2.02
2023-11-25T12:44:55.177Z,2.20
2023-11-25T12:47:23.757Z,2.45
2023-11-25T12:50:05.743Z,2.55
2023-11-25T12:52:35.817Z,2.65
2023-11-25T12:55:08.373Z,2.64
2023-11-25T12:57:36.956Z,2.43
2023-11-25T13:00:10.039Z,2.25
2023-11-25T13:02:46.566Z,2.15
2023-11-25T13:05:25.228Z,2.16
2023-11-25T13:07:55.505Z,2.35
2023-11-25T13:10:24.418Z,2.54
2023-11-25T13:12:52.956Z,2.41
2023-11-25T13:15:21.353Z,2.12
2023-11-25T13:17:49.839Z,2.18
2023-11-25T13:20:18.306Z,2.16
2023-11-25T13:22:46.793Z,2.06
2023-11-25T13:25:16.674Z,1.98
2023-11-25T13:27:45.126Z,1.96
2023-11-25T13:30:13.714Z,1.97
2023-11-25T13:32:42.425Z,1.93
2023-11-25T13:35:10.890Z,1.88
2023-11-25T13:37:39.303Z,1.91
2023-11-25T13:40:16.157Z,1.93
2023-11-25T13:42:45.917Z,1.94
2023-11-25T13:45:14.516Z,1.93
2023-11-25T13:47:43.458Z,1.88
2023-11-25T13:50:12.586Z,1.87
2023-11-25T13:52:40.983Z,1.86
2023-11-25T13:55:11.235Z,1.85
2023-11-25T13:57:39.607Z,1.84
2023-11-25T14:00:10.988Z,1.82
2023-11-25T14:02:39.651Z,1.83
2023-11-25T14:05:10.097Z,1.86
2023-11-25T14:07:39.179Z,1.89
2023-11-25T14:10:09.282Z,1.89
2023-11-25T14:12:38.685Z,1.89
2023-11-25T14:15:09.636Z,1.92
2023-11-25T14:17:40.761Z,1.93
2023-11-25T14:20:20.268Z,1.97
2023-11-25T14:22:49.892Z,2.00
2023-11-25T14:25:20.430Z,1.97
2023-11-25T14:27:50.116Z,1.96
2023-11-25T14:30:23.784Z,1.95
2023-11-25T14:32:52.362Z,1.97
2023-11-25T14:35:21.928Z,1.94
2023-11-25T14:37:50.391Z,1.95
2023-11-25T14:40:19.740Z,1.96
2023-11-25T14:42:48.230Z,1.96
2023-11-25T14:45:16.706Z,1.96
2023-11-25T14:47:46.673Z,1.95
2023-11-25T14:50:15.164Z,1.97
2023-11-25T14:52:43.781Z,1.99
2023-11-25T14:55:12.892Z,1.99
2023-11-25T14:57:41.637Z,1.97
2023-11-25T15:00:13.886Z,1.92
2023-11-25T15:02:42.772Z,1.91
2023-11-25T15:05:14.960Z,1.91
2023-11-25T15:07:43.598Z,1.88
2023-11-25T15:10:13.055Z,1.86
2023-11-25T15:12:41.581Z,1.87
2023-11-25T15:15:10.923Z,1.84
2023-11-25T15:17:39.393Z,1.83
2023-11-25T15:20:09.401Z,1.82
2023-11-25T15:22:39.300Z,1.80
2023-11-25T15:25:08.542Z,1.80
2023-11-25T15:27:36.934Z,1.81
2023-11-25T15:30:10.301Z,1.82
2023-11-25T15:32:41.188Z,1.79
2023-11-25T15:35:10.580Z,1.77
2023-11-25T15:37:40.417Z,1.77
2023-11-25T15:40:10.205Z,1.74
2023-11-25T15:42:38.737Z,1.68
2023-11-25T15:45:08.003Z,1.65
2023-11-25T15:47:37.049Z,1.66
2023-11-25T15:50:07.101Z,1.66
2023-11-25T15:52:35.633Z,1.65
2023-11-25T15:55:05.987Z,1.65
2023-11-25T15:57:34.456Z,1.64
2023-11-25T16:00:09.535Z,1.65
2023-11-25T16:02:38.126Z,1.66
2023-11-25T16:05:09.171Z,1.69
2023-11-25T16:07:37.608Z,1.71
2023-11-25T16:10:08.685Z,1.71
2023-11-25T16:12:37.048Z,1.71
2023-11-25T16:15:07.108Z,1.70
2023-11-25T16:17:35.528Z,1.70
2023-11-25T16:20:05.018Z,1.67
2023-11-25T16:22:33.497Z,1.62
2023-11-25T16:25:02.776Z,1.54
2023-11-25T16:27:34.354Z,1.53
2023-11-25T16:30:04.220Z,1.53
2023-11-25T16:32:32.739Z,1.53
2023-11-25T16:35:01.356Z,1.53
2023-11-25T16:37:29.813Z,1.53
2023-11-25T16:39:59.348Z,1.50
2023-11-25T16:42:28.259Z,1.49
2023-11-25T16:44:58.018Z,1.50
2023-11-25T16:47:26.435Z,1.50
2023-11-25T16:49:56.527Z,1.50
2023-11-25T16:52:24.999Z,1.50
2023-11-25T16:54:53.456Z,1.52
2023-11-25T16:57:21.873Z,1.51
2023-11-25T16:59:50.445Z,1.50
2023-11-25T17:02:21.363Z,1.51
2023-11-25T17:04:49.984Z,1.47
2023-11-25T17:07:18.525Z,1.43
2023-11-25T17:09:47.567Z,1.45
2023-11-25T17:12:16.009Z,1.46
2023-11-25T17:14:44.463Z,1.47
2023-11-25T17:17:13.633Z,1.48
2023-11-25T17:19:43.458Z,1.46
2023-11-25T17:22:11.910Z,1.46
2023-11-25T17:24:42.224Z,1.48
2023-11-25T17:27:10.638Z,1.50
2023-11-25T17:29:39.071Z,1.50
2023-11-25T17:32:10.201Z,1.49
2023-11-25T17:34:39.184Z,1.50
2023-11-25T17:37:08.996Z,1.49
2023-11-25T17:39:39.407Z,1.50
2023-11-25T17:42:08.906Z,1.51
2023-11-25T17:44:37.353Z,1.52
2023-11-25T17:47:07.794Z,1.53
2023-11-25T17:49:36.251Z,1.55
2023-11-25T17:52:05.669Z,1.57
2023-11-25T17:54:35.393Z,1.60
2023-11-25T17:57:03.860Z,1.58
2023-11-25T17:59:33.445Z,1.49
2023-11-25T18:02:01.942Z,1.44
2023-11-25T18:04:30.412Z,1.40
2023-11-25T18:06:58.792Z,1.40
2023-11-25T18:09:27.153Z,1.38
2023-11-25T18:11:56.900Z,1.38
2023-11-25T18:14:25.583Z,1.38
2023-11-25T18:16:55.240Z,1.42
2023-11-25T18:19:23.822Z,1.42
2023-11-25T18:21:52.587Z,1.43
2023-11-25T18:24:21.403Z,1.41
2023-11-25T18:26:49.779Z,1.42
2023-11-25T18:29:19.889Z,1.42
2023-11-25T18:31:48.289Z,1.42
2023-11-25T18:34:16.753Z,1.43
2023-11-25T18:36:45.185Z,1.44
2023-11-25T18:39:15.042Z,1.44
2023-11-25T18:41:43.569Z,1.41
2023-11-25T18:44:12.329Z,1.40
2023-11-25T18:46:42.326Z,1.41
2023-11-25T18:49:11.982Z,1.40
2023-11-25T18:51:41.487Z,1.41
2023-11-25T18:54:09.891Z,1.44
2023-11-25T18:56:38.321Z,1.44
2023-11-25T18:59:07.806Z,1.43
2023-11-25T19:01:37.373Z,1.45
2023-11-25T19:04:07.918Z,1.42
2023-11-25T19:06:36.386Z,1.37
2023-11-25T19:09:05.825Z,1.33
2023-11-25T19:11:35.917Z,1.37
2023-11-25T19:14:04.541Z,1.38
2023-11-25T19:16:33.508Z,1.37
2023-11-25T19:19:02.089Z,1.37
2023-11-25T19:21:31.840Z,1.36
2023-11-25T19:24:00.227Z,1.35
2023-11-25T19:26:28.631Z,1.32
2023-11-25T19:28:57.344Z,1.37
2023-11-25T19:31:25.828Z,1.38
2023-11-25T19:33:54.556Z,1.37
2023-11-25T19:36:23.396Z,1.35
2023-11-25T19:38:55.732Z,1.35
2023-11-25T19:41:26.109Z,1.35
2023-11-25T19:43:54.560Z,1.40
2023-11-25T19:46:22.009Z,1.43
2023-11-25T19:48:50.483Z,1.47
2023-11-25T19:51:18.876Z,1.48
2023-11-25T19:53:50.782Z,1.51
2023-11-25T19:56:22.081Z,1.54
2023-11-25T19:58:50.539Z,1.56
2023-11-25T20:01:19.148Z,1.58
2023-11-25T20:03:47.752Z,1.56
2023-11-25T20:06:16.158Z,1.51
2023-11-25T20:08:44.729Z,1.44
2023-11-25T20:11:13.235Z,1.40
2023-11-25T20:13:43.075Z,1.40
2023-11-25T20:16:11.947Z,1.41
2023-11-25T20:18:41.132Z,1.44
2023-11-25T20:21:10.176Z,1.47
2023-11-25T20:23:38.767Z,1.53
2023-11-25T20:26:07.451Z,1.59
2023-11-25T20:28:36.239Z,1.62
2023-11-25T20:31:06.233Z,1.66
2023-11-25T20:33:36.967Z,1.67
2023-11-25T20:36:06.450Z,1.66
2023-11-25T20:38:34.869Z,1.64
2023-11-25T20:41:03.518Z,1.61
2023-11-25T20:43:31.970Z,1.58
2023-11-25T20:46:01.209Z,1.55
2023-11-25T20:48:31.149Z,1.54
2023-11-25T20:51:04.452Z,1.53
2023-11-25T20:53:33.355Z,1.53
2023-11-25T20:56:01.830Z,1.55
2023-11-25T20:58:32.349Z,1.57
2023-11-25T21:01:03.727Z,1.58
2023-11-25T21:03:33.658Z,1.60
2023-11-25T21:06:02.400Z,1.57
2023-11-25T21:08:31.149Z,1.57
2023-11-25T21:10:59.575Z,1.58
2023-11-25T21:13:27.971Z,1.61
2023-11-25T21:15:56.420Z,1.63
2023-11-25T21:18:24.877Z,1.65
2023-11-25T21:20:55.348Z,1.64
2023-11-25T21:23:23.779Z,1.63
2023-11-25T21:25:52.237Z,1.63
2023-11-25T21:28:20.704Z,1.63
2023-11-25T21:30:49.608Z,1.63
2023-11-25T21:33:18.062Z,1.63
2023-11-25T21:35:47.826Z,1.67
2023-11-25T21:38:18.062Z,1.68
2023-11-25T21:40:46.584Z,1.71
2023-11-25T21:43:15.160Z,1.74
2023-11-25T21:45:43.794Z,1.75
2023-11-25T21:48:12.315Z,1.75
2023-11-25T21:50:41.662Z,1.74
2023-11-25T21:53:10.285Z,1.75
2023-11-25T21:55:40.078Z,1.74
2023-11-25T21:58:08.444Z,1.74
2023-11-25T22:00:36.886Z,1.72
2023-11-25T22:03:06.495Z,1.66
2023-11-25T22:05:34.962Z,1.62
2023-11-25T22:08:03.473Z,1.61
2023-11-25T22:10:36.141Z,1.61
2023-11-25T22:13:06.047Z,1.56
2023-11-25T22:15:34.937Z,1.54
2023-11-25T22:18:03.919Z,1.51
2023-11-25T22:20:32.367Z,1.51
2023-11-25T22:23:01.744Z,1.51
2023-11-25T22:25:36.040Z,1.54
2023-11-25T22:28:09.874Z,1.57
2023-11-25T22:30:38.343Z,1.55
2023-11-25T22:33:07.315Z,1.56
2023-11-25T22:35:47.455Z,1.55
2023-11-25T22:38:19.443Z,1.54
2023-11-25T22:40:49.029Z,1.53
2023-11-25T22:43:18.884Z,1.54
2023-11-25T22:45:47.276Z,1.57
2023-11-25T22:48:15.713Z,1.57
2023-11-25T22:50:44.140Z,1.56
2023-11-25T22:53:13.545Z,1.56
2023-11-25T22:55:42.156Z,1.57
2023-11-25T22:58:10.567Z,1.57
2023-11-25T23:00:51.096Z,1.58
2023-11-25T23:03:20.921Z,1.60
2023-11-25T23:05:49.820Z,1.63
2023-11-25T23:08:18.341Z,1.65
2023-11-25T23:10:46.826Z,1.66
2023-11-25T23:13:15.372Z,1.66
2023-11-25T23:15:45.246Z,1.62
2023-11-25T23:18:13.735Z,1.61
2023-11-25T23:20:42.059Z,1.58
2023-11-25T23:23:10.579Z,1.56
2023-11-25T23:25:38.978Z,1.56
2023-11-25T23:28:07.419Z,1.58
2023-11-25T23:30:35.841Z,1.57
2023-11-25T23:33:05.672Z,1.55
2023-11-25T23:35:34.112Z,1.54
2023-11-25T23:38:03.066Z,1.54
2023-11-25T23:40:31.842Z,1.55
2023-11-25T23:43:00.258Z,1.57
2023-11-25T23:45:28.854Z,1.63
2023-11-25T23:47:57.329Z,1.61
2023-11-25T23:50:27.202Z,1.62
2023-11-25T23:52:55.690Z,1.59
2023-11-25T23:55:24.275Z,1.63
2023-11-25T23:57:52.657Z,1.69
